Saint-Pacome, Canada
Current Conditions -  °F | °C
As of 4:53 AM on Friday 19 Dec 2014 (Local Time) from KFVE Reporting Station
Overcast Overcast  
Wind Chill:   Ceiling: 1100
Heat Index: 21°   Visibility: 10mi
Dew Point: 18°   Wind: 20mph
Humidity: 88%   Direction: 330°NNW
Pressure: 29.71"   Gusts: 26mph
Location:  47.42°N, 69.95°W
Report Text: KFVE 190953Z AUTO 33017G23KT 10SM BKN011 OVC050 M06/M08 A2971 RMK AO2 PK WND 34026/0918 SLP074 T10611078
Loading
Personal Weather Stations






























Interactive Weather Map New forecast layout! Learn more

10-Day Weather Forecast

Advertisements
Track Severe Weather on mobile